sensor_id;sensor_type;location;lat;lon;timestamp;P1;durP1;ratioP1;P2;durP2;ratioP2
12892;SDS011;6514;48.606;9.222;2024-03-08T00:01:47;23.23;;;14.57;;
12892;SDS011;6514;48.606;9.222;2024-03-08T00:04:14;23.67;;;14.97;;
12892;SDS011;6514;48.606;9.222;2024-03-08T00:06:41;23.30;;;14.33;;
12892;SDS011;6514;48.606;9.222;2024-03-08T00:09:11;22.77;;;14.40;;
12892;SDS011;6514;48.606;9.222;2024-03-08T00:11:37;25.27;;;15.20;;
12892;SDS011;6514;48.606;9.222;2024-03-08T00:14:04;24.70;;;14.47;;
12892;SDS011;6514;48.606;9.222;2024-03-08T00:16:34;20.67;;;13.50;;
12892;SDS011;6514;48.606;9.222;2024-03-08T00:19:02;21.43;;;14.33;;
12892;SDS011;6514;48.606;9.222;2024-03-08T00:21:28;23.60;;;14.50;;
12892;SDS011;6514;48.606;9.222;2024-03-08T00:23:56;22.17;;;13.30;;
12892;SDS011;6514;48.606;9.222;2024-03-08T00:26:23;19.80;;;13.43;;
12892;SDS011;6514;48.606;9.222;2024-03-08T00:28:50;21.63;;;12.77;;
12892;SDS011;6514;48.606;9.222;2024-03-08T00:31:16;24.67;;;13.90;;
12892;SDS011;6514;48.606;9.222;2024-03-08T00:33:45;23.93;;;13.97;;
12892;SDS011;6514;48.606;9.222;2024-03-08T00:36:11;22.47;;;13.87;;
12892;SDS011;6514;48.606;9.222;2024-03-08T00:38:38;21.37;;;13.40;;
12892;SDS011;6514;48.606;9.222;2024-03-08T00:41:05;21.80;;;13.60;;
12892;SDS011;6514;48.606;9.222;2024-03-08T00:43:32;20.50;;;12.63;;
12892;SDS011;6514;48.606;9.222;2024-03-08T00:45:59;28.70;;;17.17;;
12892;SDS011;6514;48.606;9.222;2024-03-08T00:48:27;24.17;;;14.80;;
12892;SDS011;6514;48.606;9.222;2024-03-08T00:50:55;22.03;;;13.83;;
12892;SDS011;6514;48.606;9.222;2024-03-08T00:53:22;24.87;;;13.73;;
12892;SDS011;6514;48.606;9.222;2024-03-08T00:55:49;19.93;;;12.40;;
12892;SDS011;6514;48.606;9.222;2024-03-08T00:58:16;21.00;;;13.13;;
12892;SDS011;6514;48.606;9.222;2024-03-08T01:00:42;20.80;;;13.57;;
12892;SDS011;6514;48.606;9.222;2024-03-08T01:03:09;21.23;;;11.93;;
12892;SDS011;6514;48.606;9.222;2024-03-08T01:05:36;19.77;;;12.70;;
12892;SDS011;6514;48.606;9.222;2024-03-08T01:08:05;21.93;;;14.10;;
12892;SDS011;6514;48.606;9.222;2024-03-08T01:10:32;23.33;;;14.60;;
12892;SDS011;6514;48.606;9.222;2024-03-08T01:12:59;19.57;;;12.70;;
12892;SDS011;6514;48.606;9.222;2024-03-08T01:15:26;23.50;;;14.10;;
12892;SDS011;6514;48.606;9.222;2024-03-08T01:17:54;21.37;;;12.87;;
12892;SDS011;6514;48.606;9.222;2024-03-08T01:20:20;20.97;;;13.33;;
12892;SDS011;6514;48.606;9.222;2024-03-08T01:22:47;20.60;;;13.90;;
12892;SDS011;6514;48.606;9.222;2024-03-08T01:25:15;26.00;;;14.07;;
12892;SDS011;6514;48.606;9.222;2024-03-08T01:27:42;25.63;;;13.43;;
12892;SDS011;6514;48.606;9.222;2024-03-08T01:30:10;21.87;;;12.70;;
12892;SDS011;6514;48.606;9.222;2024-03-08T01:32:37;21.30;;;13.27;;
12892;SDS011;6514;48.606;9.222;2024-03-08T01:35:04;21.17;;;12.40;;
12892;SDS011;6514;48.606;9.222;2024-03-08T01:37:34;22.43;;;13.37;;
12892;SDS011;6514;48.606;9.222;2024-03-08T01:40:01;23.07;;;13.47;;
12892;SDS011;6514;48.606;9.222;2024-03-08T01:42:30;23.27;;;14.23;;
12892;SDS011;6514;48.606;9.222;2024-03-08T01:44:57;24.30;;;14.73;;
12892;SDS011;6514;48.606;9.222;2024-03-08T01:47:23;24.40;;;13.70;;
12892;SDS011;6514;48.606;9.222;2024-03-08T01:49:50;21.53;;;13.30;;
12892;SDS011;6514;48.606;9.222;2024-03-08T01:52:18;23.73;;;14.17;;
12892;SDS011;6514;48.606;9.222;2024-03-08T01:54:50;22.73;;;13.87;;
12892;SDS011;6514;48.606;9.222;2024-03-08T01:57:17;22.23;;;14.17;;
12892;SDS011;6514;48.606;9.222;2024-03-08T01:59:45;21.33;;;13.33;;
12892;SDS011;6514;48.606;9.222;2024-03-08T02:02:13;24.03;;;14.30;;
12892;SDS011;6514;48.606;9.222;2024-03-08T02:04:42;25.07;;;13.33;;
12892;SDS011;6514;48.606;9.222;2024-03-08T02:07:10;21.77;;;14.07;;
12892;SDS011;6514;48.606;9.222;2024-03-08T02:09:37;20.53;;;12.60;;
12892;SDS011;6514;48.606;9.222;2024-03-08T02:12:04;21.03;;;13.53;;
12892;SDS011;6514;48.606;9.222;2024-03-08T02:14:31;24.03;;;13.30;;
12892;SDS011;6514;48.606;9.222;2024-03-08T02:17:01;26.17;;;14.97;;
12892;SDS011;6514;48.606;9.222;2024-03-08T02:19:28;20.97;;;12.47;;
12892;SDS011;6514;48.606;9.222;2024-03-08T02:21:56;21.50;;;13.80;;
12892;SDS011;6514;48.606;9.222;2024-03-08T02:24:24;24.73;;;13.60;;
12892;SDS011;6514;48.606;9.222;2024-03-08T02:26:51;22.40;;;14.10;;
12892;SDS011;6514;48.606;9.222;2024-03-08T02:29:18;23.07;;;13.00;;
12892;SDS011;6514;48.606;9.222;2024-03-08T02:31:46;20.57;;;13.50;;
12892;SDS011;6514;48.606;9.222;2024-03-08T02:34:13;26.20;;;14.97;;
12892;SDS011;6514;48.606;9.222;2024-03-08T02:36:39;22.73;;;14.07;;
12892;SDS011;6514;48.606;9.222;2024-03-08T02:39:08;21.53;;;14.53;;
12892;SDS011;6514;48.606;9.222;2024-03-08T02:41:35;21.73;;;12.67;;
12892;SDS011;6514;48.606;9.222;2024-03-08T02:44:02;22.83;;;13.43;;
12892;SDS011;6514;48.606;9.222;2024-03-08T02:46:29;22.77;;;13.33;;
12892;SDS011;6514;48.606;9.222;2024-03-08T02:48:56;21.50;;;13.40;;
12892;SDS011;6514;48.606;9.222;2024-03-08T02:51:23;25.07;;;12.97;;
12892;SDS011;6514;48.606;9.222;2024-03-08T02:53:51;21.00;;;13.20;;
12892;SDS011;6514;48.606;9.222;2024-03-08T02:56:19;22.63;;;13.30;;
12892;SDS011;6514;48.606;9.222;2024-03-08T02:58:47;21.60;;;13.40;;
12892;SDS011;6514;48.606;9.222;2024-03-08T03:01:14;20.97;;;13.10;;
12892;SDS011;6514;48.606;9.222;2024-03-08T03:03:40;19.50;;;12.97;;
12892;SDS011;6514;48.606;9.222;2024-03-08T03:06:07;24.40;;;13.23;;
12892;SDS011;6514;48.606;9.222;2024-03-08T03:08:35;23.20;;;13.13;;
12892;SDS011;6514;48.606;9.222;2024-03-08T03:11:01;20.97;;;13.13;;
12892;SDS011;6514;48.606;9.222;2024-03-08T03:13:30;22.97;;;12.70;;
12892;SDS011;6514;48.606;9.222;2024-03-08T03:15:56;24.43;;;13.63;;
12892;SDS011;6514;48.606;9.222;2024-03-08T03:18:23;20.97;;;12.80;;
12892;SDS011;6514;48.606;9.222;2024-03-08T03:20:52;21.60;;;11.73;;
12892;SDS011;6514;48.606;9.222;2024-03-08T03:23:19;22.00;;;12.37;;
12892;SDS011;6514;48.606;9.222;2024-03-08T03:25:46;22.13;;;12.73;;
12892;SDS011;6514;48.606;9.222;2024-03-08T03:28:13;20.50;;;11.97;;
12892;SDS011;6514;48.606;9.222;2024-03-08T03:30:44;22.10;;;13.40;;
12892;SDS011;6514;48.606;9.222;2024-03-08T03:33:11;22.37;;;13.43;;
12892;SDS011;6514;48.606;9.222;2024-03-08T03:35:40;22.13;;;12.23;;
12892;SDS011;6514;48.606;9.222;2024-03-08T03:38:08;26.27;;;13.60;;
12892;SDS011;6514;48.606;9.222;2024-03-08T03:40:35;22.63;;;13.17;;
12892;SDS011;6514;48.606;9.222;2024-03-08T03:43:01;23.27;;;13.90;;
12892;SDS011;6514;48.606;9.222;2024-03-08T03:45:29;25.87;;;13.57;;
12892;SDS011;6514;48.606;9.222;2024-03-08T03:48:01;19.20;;;12.73;;
12892;SDS011;6514;48.606;9.222;2024-03-08T03:50:28;21.93;;;13.27;;
12892;SDS011;6514;48.606;9.222;2024-03-08T03:52:55;24.83;;;13.83;;
12892;SDS011;6514;48.606;9.222;2024-03-08T03:55:22;21.33;;;13.40;;
12892;SDS011;6514;48.606;9.222;2024-03-08T03:57:48;25.17;;;14.07;;
12892;SDS011;6514;48.606;9.222;2024-03-08T04:00:15;22.20;;;12.90;;
12892;SDS011;6514;48.606;9.222;2024-03-08T04:02:43;22.93;;;13.47;;
12892;SDS011;6514;48.606;9.222;2024-03-08T04:05:11;26.00;;;13.30;;
12892;SDS011;6514;48.606;9.222;2024-03-08T04:07:38;23.27;;;12.60;;
12892;SDS011;6514;48.606;9.222;2024-03-08T04:10:06;22.10;;;12.73;;
12892;SDS011;6514;48.606;9.222;2024-03-08T04:12:36;22.63;;;13.70;;
12892;SDS011;6514;48.606;9.222;2024-03-08T04:15:04;23.37;;;13.07;;
12892;SDS011;6514;48.606;9.222;2024-03-08T04:17:32;21.97;;;13.10;;
12892;SDS011;6514;48.606;9.222;2024-03-08T04:20:00;22.00;;;12.33;;
12892;SDS011;6514;48.606;9.222;2024-03-08T04:22:34;23.83;;;13.03;;
12892;SDS011;6514;48.606;9.222;2024-03-08T04:25:01;21.83;;;12.70;;
12892;SDS011;6514;48.606;9.222;2024-03-08T04:27:28;19.60;;;13.30;;
12892;SDS011;6514;48.606;9.222;2024-03-08T04:29:55;21.63;;;12.30;;
12892;SDS011;6514;48.606;9.222;2024-03-08T04:32:22;23.80;;;13.70;;
12892;SDS011;6514;48.606;9.222;2024-03-08T04:34:48;22.57;;;12.33;;
12892;SDS011;6514;48.606;9.222;2024-03-08T04:37:15;21.97;;;13.73;;
12892;SDS011;6514;48.606;9.222;2024-03-08T04:39:46;23.83;;;13.57;;
12892;SDS011;6514;48.606;9.222;2024-03-08T04:42:13;20.27;;;13.00;;
12892;SDS011;6514;48.606;9.222;2024-03-08T04:44:40;20.43;;;12.63;;
12892;SDS011;6514;48.606;9.222;2024-03-08T04:47:07;19.60;;;12.53;;
12892;SDS011;6514;48.606;9.222;2024-03-08T04:49:35;20.57;;;12.60;;
12892;SDS011;6514;48.606;9.222;2024-03-08T04:52:01;22.87;;;12.47;;
12892;SDS011;6514;48.606;9.222;2024-03-08T04:54:29;23.17;;;13.47;;
12892;SDS011;6514;48.606;9.222;2024-03-08T04:56:57;29.00;;;13.23;;
12892;SDS011;6514;48.606;9.222;2024-03-08T04:59:25;21.07;;;13.23;;
12892;SDS011;6514;48.606;9.222;2024-03-08T05:01:51;21.57;;;13.17;;
12892;SDS011;6514;48.606;9.222;2024-03-08T05:04:18;24.83;;;13.60;;
12892;SDS011;6514;48.606;9.222;2024-03-08T05:06:45;24.73;;;13.37;;
12892;SDS011;6514;48.606;9.222;2024-03-08T05:09:12;22.07;;;13.03;;
12892;SDS011;6514;48.606;9.222;2024-03-08T05:11:39;22.37;;;14.10;;
12892;SDS011;6514;48.606;9.222;2024-03-08T05:14:07;22.83;;;12.50;;
12892;SDS011;6514;48.606;9.222;2024-03-08T05:16:34;21.80;;;12.73;;
12892;SDS011;6514;48.606;9.222;2024-03-08T05:19:02;20.97;;;12.47;;
12892;SDS011;6514;48.606;9.222;2024-03-08T05:21:28;19.80;;;12.73;;
12892;SDS011;6514;48.606;9.222;2024-03-08T05:23:55;20.63;;;12.17;;
12892;SDS011;6514;48.606;9.222;2024-03-08T05:26:22;25.20;;;13.97;;
12892;SDS011;6514;48.606;9.222;2024-03-08T05:28:49;24.73;;;12.80;;
12892;SDS011;6514;48.606;9.222;2024-03-08T05:31:19;22.40;;;12.53;;
12892;SDS011;6514;48.606;9.222;2024-03-08T05:33:48;21.73;;;13.20;;
12892;SDS011;6514;48.606;9.222;2024-03-08T05:36:14;24.53;;;13.90;;
12892;SDS011;6514;48.606;9.222;2024-03-08T05:38:42;21.73;;;13.33;;
12892;SDS011;6514;48.606;9.222;2024-03-08T05:41:09;20.97;;;13.23;;
12892;SDS011;6514;48.606;9.222;2024-03-08T05:43:36;24.50;;;13.97;;
12892;SDS011;6514;48.606;9.222;2024-03-08T05:46:03;28.23;;;15.70;;
12892;SDS011;6514;48.606;9.222;2024-03-08T05:48:32;38.60;;;19.43;;
12892;SDS011;6514;48.606;9.222;2024-03-08T05:50:59;36.83;;;19.80;;
12892;SDS011;6514;48.606;9.222;2024-03-08T05:53:26;29.13;;;17.07;;
12892;SDS011;6514;48.606;9.222;2024-03-08T05:55:56;27.37;;;15.60;;
12892;SDS011;6514;48.606;9.222;2024-03-08T05:58:23;24.93;;;14.07;;
12892;SDS011;6514;48.606;9.222;2024-03-08T06:00:50;25.10;;;13.77;;
12892;SDS011;6514;48.606;9.222;2024-03-08T06:03:17;26.17;;;15.03;;
12892;SDS011;6514;48.606;9.222;2024-03-08T06:05:47;27.13;;;15.10;;
12892;SDS011;6514;48.606;9.222;2024-03-08T06:08:14;24.03;;;13.43;;
12892;SDS011;6514;48.606;9.222;2024-03-08T06:10:41;25.33;;;14.17;;
12892;SDS011;6514;48.606;9.222;2024-03-08T06:13:08;26.83;;;14.73;;
12892;SDS011;6514;48.606;9.222;2024-03-08T06:15:37;25.23;;;13.87;;
12892;SDS011;6514;48.606;9.222;2024-03-08T06:18:04;24.00;;;13.37;;
12892;SDS011;6514;48.606;9.222;2024-03-08T06:20:31;23.60;;;13.17;;
12892;SDS011;6514;48.606;9.222;2024-03-08T06:22:59;24.97;;;13.87;;
12892;SDS011;6514;48.606;9.222;2024-03-08T06:25:26;26.93;;;14.70;;
12892;SDS011;6514;48.606;9.222;2024-03-08T06:27:53;26.00;;;14.57;;
12892;SDS011;6514;48.606;9.222;2024-03-08T06:30:20;26.30;;;15.63;;
12892;SDS011;6514;48.606;9.222;2024-03-08T06:32:47;23.53;;;13.73;;
12892;SDS011;6514;48.606;9.222;2024-03-08T06:35:14;22.77;;;14.93;;
12892;SDS011;6514;48.606;9.222;2024-03-08T06:37:41;24.40;;;14.40;;
12892;SDS011;6514;48.606;9.222;2024-03-08T06:40:11;26.50;;;14.33;;
12892;SDS011;6514;48.606;9.222;2024-03-08T06:42:39;23.00;;;14.40;;
12892;SDS011;6514;48.606;9.222;2024-03-08T06:45:06;21.60;;;13.80;;
12892;SDS011;6514;48.606;9.222;2024-03-08T06:47:35;21.80;;;14.00;;
12892;SDS011;6514;48.606;9.222;2024-03-08T06:50:02;22.00;;;13.40;;
12892;SDS011;6514;48.606;9.222;2024-03-08T06:52:30;21.27;;;12.83;;
12892;SDS011;6514;48.606;9.222;2024-03-08T06:54:58;22.97;;;12.90;;
12892;SDS011;6514;48.606;9.222;2024-03-08T06:57:28;21.47;;;13.10;;
12892;SDS011;6514;48.606;9.222;2024-03-08T06:59:55;21.23;;;13.33;;
12892;SDS011;6514;48.606;9.222;2024-03-08T07:02:22;20.73;;;12.27;;
12892;SDS011;6514;48.606;9.222;2024-03-08T07:04:50;20.50;;;13.47;;
12892;SDS011;6514;48.606;9.222;2024-03-08T07:07:18;20.27;;;12.87;;
12892;SDS011;6514;48.606;9.222;2024-03-08T07:09:45;19.53;;;12.13;;
12892;SDS011;6514;48.606;9.222;2024-03-08T07:12:14;19.20;;;12.27;;
12892;SDS011;6514;48.606;9.222;2024-03-08T07:14:43;19.63;;;12.30;;
12892;SDS011;6514;48.606;9.222;2024-03-08T07:17:10;21.17;;;12.63;;
12892;SDS011;6514;48.606;9.222;2024-03-08T07:19:37;21.40;;;12.73;;
12892;SDS011;6514;48.606;9.222;2024-03-08T07:22:04;19.73;;;12.60;;
12892;SDS011;6514;48.606;9.222;2024-03-08T07:24:33;19.13;;;11.60;;
12892;SDS011;6514;48.606;9.222;2024-03-08T07:27:15;20.03;;;11.90;;
12892;SDS011;6514;48.606;9.222;2024-03-08T07:29:43;20.03;;;12.30;;
12892;SDS011;6514;48.606;9.222;2024-03-08T07:32:11;18.27;;;11.40;;
12892;SDS011;6514;48.606;9.222;2024-03-08T07:34:46;19.07;;;12.17;;
12892;SDS011;6514;48.606;9.222;2024-03-08T07:37:13;15.83;;;10.67;;
12892;SDS011;6514;48.606;9.222;2024-03-08T07:39:40;19.20;;;11.40;;
12892;SDS011;6514;48.606;9.222;2024-03-08T07:42:08;24.40;;;12.97;;
12892;SDS011;6514;48.606;9.222;2024-03-08T07:44:35;27.13;;;13.27;;
12892;SDS011;6514;48.606;9.222;2024-03-08T07:47:04;28.00;;;15.10;;
12892;SDS011;6514;48.606;9.222;2024-03-08T07:49:34;28.50;;;15.53;;
12892;SDS011;6514;48.606;9.222;2024-03-08T07:52:02;18.53;;;11.73;;
12892;SDS011;6514;48.606;9.222;2024-03-08T07:54:32;32.70;;;16.53;;
12892;SDS011;6514;48.606;9.222;2024-03-08T07:56:59;19.23;;;11.70;;
12892;SDS011;6514;48.606;9.222;2024-03-08T07:59:27;21.43;;;13.07;;
12892;SDS011;6514;48.606;9.222;2024-03-08T08:01:54;17.53;;;11.47;;
12892;SDS011;6514;48.606;9.222;2024-03-08T08:04:23;17.03;;;10.33;;
12892;SDS011;6514;48.606;9.222;2024-03-08T08:06:51;16.67;;;11.77;;
12892;SDS011;6514;48.606;9.222;2024-03-08T08:09:19;15.63;;;12.10;;
12892;SDS011;6514;48.606;9.222;2024-03-08T08:11:53;17.67;;;11.97;;
12892;SDS011;6514;48.606;9.222;2024-03-08T08:14:20;17.67;;;11.77;;
12892;SDS011;6514;48.606;9.222;2024-03-08T08:16:47;18.80;;;11.77;;
12892;SDS011;6514;48.606;9.222;2024-03-08T08:19:16;15.83;;;10.80;;
12892;SDS011;6514;48.606;9.222;2024-03-08T08:21:45;20.63;;;11.60;;
12892;SDS011;6514;48.606;9.222;2024-03-08T08:24:12;16.73;;;10.90;;
12892;SDS011;6514;48.606;9.222;2024-03-08T08:26:39;16.60;;;11.67;;
12892;SDS011;6514;48.606;9.222;2024-03-08T08:29:05;15.47;;;10.57;;
12892;SDS011;6514;48.606;9.222;2024-03-08T08:31:32;16.90;;;10.77;;
12892;SDS011;6514;48.606;9.222;2024-03-08T08:33:59;17.80;;;11.37;;
12892;SDS011;6514;48.606;9.222;2024-03-08T08:36:27;16.20;;;10.97;;
12892;SDS011;6514;48.606;9.222;2024-03-08T08:38:56;15.70;;;11.00;;
12892;SDS011;6514;48.606;9.222;2024-03-08T08:41:24;14.77;;;9.77;;
12892;SDS011;6514;48.606;9.222;2024-03-08T08:43:51;15.93;;;10.40;;
12892;SDS011;6514;48.606;9.222;2024-03-08T08:46:18;17.23;;;11.60;;
12892;SDS011;6514;48.606;9.222;2024-03-08T08:48:46;15.60;;;10.10;;
12892;SDS011;6514;48.606;9.222;2024-03-08T08:51:13;17.30;;;10.60;;
12892;SDS011;6514;48.606;9.222;2024-03-08T08:53:40;15.50;;;11.07;;
12892;SDS011;6514;48.606;9.222;2024-03-08T08:56:11;16.27;;;10.97;;
12892;SDS011;6514;48.606;9.222;2024-03-08T08:58:39;16.77;;;11.20;;
12892;SDS011;6514;48.606;9.222;2024-03-08T09:01:07;17.80;;;11.50;;
12892;SDS011;6514;48.606;9.222;2024-03-08T09:03:35;17.10;;;10.67;;
12892;SDS011;6514;48.606;9.222;2024-03-08T09:06:02;16.60;;;10.60;;
12892;SDS011;6514;48.606;9.222;2024-03-08T09:08:29;15.80;;;11.40;;
12892;SDS011;6514;48.606;9.222;2024-03-08T09:10:56;14.40;;;10.03;;
12892;SDS011;6514;48.606;9.222;2024-03-08T09:13:26;15.63;;;10.27;;
12892;SDS011;6514;48.606;9.222;2024-03-08T09:15:52;15.20;;;11.37;;
12892;SDS011;6514;48.606;9.222;2024-03-08T09:18:19;15.27;;;10.70;;
12892;SDS011;6514;48.606;9.222;2024-03-08T09:20:46;17.87;;;10.43;;
12892;SDS011;6514;48.606;9.222;2024-03-08T09:23:13;14.90;;;10.43;;
12892;SDS011;6514;48.606;9.222;2024-03-08T09:25:42;17.13;;;10.70;;
12892;SDS011;6514;48.606;9.222;2024-03-08T09:28:08;15.20;;;10.27;;
12892;SDS011;6514;48.606;9.222;2024-03-08T09:30:38;16.03;;;10.47;;
12892;SDS011;6514;48.606;9.222;2024-03-08T09:33:05;13.90;;;10.57;;
12892;SDS011;6514;48.606;9.222;2024-03-08T09:35:32;13.40;;;9.90;;
12892;SDS011;6514;48.606;9.222;2024-03-08T09:37:59;14.03;;;10.23;;
12892;SDS011;6514;48.606;9.222;2024-03-08T09:40:26;16.17;;;10.77;;
12892;SDS011;6514;48.606;9.222;2024-03-08T09:42:53;15.27;;;10.20;;
12892;SDS011;6514;48.606;9.222;2024-03-08T09:45:20;14.17;;;9.87;;
12892;SDS011;6514;48.606;9.222;2024-03-08T09:47:50;15.13;;;10.40;;
12892;SDS011;6514;48.606;9.222;2024-03-08T09:50:18;12.57;;;9.23;;
12892;SDS011;6514;48.606;9.222;2024-03-08T09:52:46;12.80;;;9.80;;
12892;SDS011;6514;48.606;9.222;2024-03-08T09:55:15;14.70;;;10.03;;
12892;SDS011;6514;48.606;9.222;2024-03-08T09:57:47;16.63;;;10.30;;
12892;SDS011;6514;48.606;9.222;2024-03-08T10:00:28;12.83;;;9.13;;
12892;SDS011;6514;48.606;9.222;2024-03-08T10:02:59;13.50;;;10.07;;
12892;SDS011;6514;48.606;9.222;2024-03-08T10:05:27;15.57;;;10.03;;
12892;SDS011;6514;48.606;9.222;2024-03-08T10:07:54;16.40;;;10.80;;
12892;SDS011;6514;48.606;9.222;2024-03-08T10:10:21;15.57;;;10.10;;
12892;SDS011;6514;48.606;9.222;2024-03-08T10:12:48;12.97;;;9.90;;
12892;SDS011;6514;48.606;9.222;2024-03-08T10:15:15;12.33;;;9.57;;
12892;SDS011;6514;48.606;9.222;2024-03-08T10:17:42;14.53;;;10.13;;
12892;SDS011;6514;48.606;9.222;2024-03-08T10:20:14;13.97;;;10.37;;
12892;SDS011;6514;48.606;9.222;2024-03-08T10:22:41;13.60;;;9.77;;
12892;SDS011;6514;48.606;9.222;2024-03-08T10:25:09;13.80;;;10.10;;
12892;SDS011;6514;48.606;9.222;2024-03-08T10:27:36;14.03;;;10.07;;
12892;SDS011;6514;48.606;9.222;2024-03-08T10:30:06;13.33;;;9.70;;
12892;SDS011;6514;48.606;9.222;2024-03-08T10:32:37;16.03;;;10.07;;
12892;SDS011;6514;48.606;9.222;2024-03-08T10:35:05;13.63;;;10.27;;
12892;SDS011;6514;48.606;9.222;2024-03-08T10:37:34;14.03;;;9.87;;
12892;SDS011;6514;48.606;9.222;2024-03-08T10:40:12;13.93;;;10.13;;
12892;SDS011;6514;48.606;9.222;2024-03-08T10:42:47;15.60;;;10.43;;
12892;SDS011;6514;48.606;9.222;2024-03-08T10:45:19;12.37;;;9.10;;
12892;SDS011;6514;48.606;9.222;2024-03-08T10:48:00;13.10;;;9.53;;
12892;SDS011;6514;48.606;9.222;2024-03-08T10:50:33;14.27;;;9.80;;
12892;SDS011;6514;48.606;9.222;2024-03-08T10:53:02;16.17;;;10.17;;
12892;SDS011;6514;48.606;9.222;2024-03-08T10:55:32;15.20;;;10.27;;
12892;SDS011;6514;48.606;9.222;2024-03-08T10:58:00;11.83;;;9.00;;
12892;SDS011;6514;48.606;9.222;2024-03-08T11:00:26;12.77;;;9.57;;
12892;SDS011;6514;48.606;9.222;2024-03-08T11:02:54;12.97;;;8.90;;
12892;SDS011;6514;48.606;9.222;2024-03-08T11:05:31;16.67;;;9.83;;
12892;SDS011;6514;48.606;9.222;2024-03-08T11:08:05;14.90;;;9.73;;
12892;SDS011;6514;48.606;9.222;2024-03-08T11:10:46;12.60;;;9.37;;
12892;SDS011;6514;48.606;9.222;2024-03-08T11:16:01;13.57;;;10.27;;
12892;SDS011;6514;48.606;9.222;2024-03-08T11:18:31;12.33;;;9.70;;
12892;SDS011;6514;48.606;9.222;2024-03-08T11:20:59;15.67;;;10.17;;
12892;SDS011;6514;48.606;9.222;2024-03-08T11:23:32;13.53;;;9.90;;
12892;SDS011;6514;48.606;9.222;2024-03-08T11:25:59;14.20;;;11.07;;
12892;SDS011;6514;48.606;9.222;2024-03-08T11:28:26;10.87;;;9.07;;
12892;SDS011;6514;48.606;9.222;2024-03-08T11:33:51;12.87;;;9.60;;
12892;SDS011;6514;48.606;9.222;2024-03-08T11:36:20;13.10;;;9.23;;
12892;SDS011;6514;48.606;9.222;2024-03-08T11:38:49;12.07;;;9.43;;
12892;SDS011;6514;48.606;9.222;2024-03-08T11:41:18;13.13;;;9.50;;
12892;SDS011;6514;48.606;9.222;2024-03-08T11:43:46;12.63;;;9.73;;
12892;SDS011;6514;48.606;9.222;2024-03-08T11:46:13;12.33;;;9.20;;
12892;SDS011;6514;48.606;9.222;2024-03-08T11:48:41;13.60;;;10.13;;
12892;SDS011;6514;48.606;9.222;2024-03-08T11:51:09;12.73;;;9.47;;
12892;SDS011;6514;48.606;9.222;2024-03-08T11:53:38;12.07;;;9.23;;
12892;SDS011;6514;48.606;9.222;2024-03-08T11:56:07;14.17;;;10.27;;
12892;SDS011;6514;48.606;9.222;2024-03-08T11:58:35;12.90;;;10.50;;
12892;SDS011;6514;48.606;9.222;2024-03-08T12:01:02;12.63;;;9.57;;
12892;SDS011;6514;48.606;9.222;2024-03-08T12:03:30;14.90;;;11.13;;
12892;SDS011;6514;48.606;9.222;2024-03-08T12:05:58;10.63;;;9.23;;
12892;SDS011;6514;48.606;9.222;2024-03-08T12:08:26;12.90;;;9.80;;
12892;SDS011;6514;48.606;9.222;2024-03-08T12:10:54;13.63;;;10.77;;
12892;SDS011;6514;48.606;9.222;2024-03-08T12:13:26;12.07;;;9.60;;
12892;SDS011;6514;48.606;9.222;2024-03-08T12:15:55;12.00;;;9.80;;
12892;SDS011;6514;48.606;9.222;2024-03-08T12:18:24;13.20;;;10.17;;
12892;SDS011;6514;48.606;9.222;2024-03-08T12:20:51;14.10;;;10.70;;
12892;SDS011;6514;48.606;9.222;2024-03-08T12:23:29;13.27;;;9.93;;
12892;SDS011;6514;48.606;9.222;2024-03-08T12:25:56;12.53;;;9.70;;
12892;SDS011;6514;48.606;9.222;2024-03-08T12:28:23;12.67;;;9.93;;
12892;SDS011;6514;48.606;9.222;2024-03-08T12:30:53;11.30;;;9.27;;
12892;SDS011;6514;48.606;9.222;2024-03-08T12:33:23;13.67;;;10.30;;
12892;SDS011;6514;48.606;9.222;2024-03-08T12:35:50;14.67;;;10.47;;
12892;SDS011;6514;48.606;9.222;2024-03-08T12:38:20;12.77;;;10.27;;
12892;SDS011;6514;48.606;9.222;2024-03-08T12:40:50;13.13;;;10.83;;
12892;SDS011;6514;48.606;9.222;2024-03-08T12:43:18;14.30;;;10.53;;
12892;SDS011;6514;48.606;9.222;2024-03-08T12:45:45;13.40;;;10.23;;
12892;SDS011;6514;48.606;9.222;2024-03-08T12:48:14;12.93;;;10.20;;
12892;SDS011;6514;48.606;9.222;2024-03-08T12:50:41;13.87;;;10.53;;
12892;SDS011;6514;48.606;9.222;2024-03-08T12:53:09;13.87;;;11.10;;
12892;SDS011;6514;48.606;9.222;2024-03-08T12:55:36;14.27;;;10.37;;
12892;SDS011;6514;48.606;9.222;2024-03-08T12:58:03;12.70;;;9.97;;
12892;SDS011;6514;48.606;9.222;2024-03-08T13:00:34;13.90;;;10.47;;
12892;SDS011;6514;48.606;9.222;2024-03-08T13:03:08;14.13;;;9.97;;
12892;SDS011;6514;48.606;9.222;2024-03-08T13:05:37;12.87;;;10.43;;
12892;SDS011;6514;48.606;9.222;2024-03-08T13:08:05;15.67;;;11.57;;
12892;SDS011;6514;48.606;9.222;2024-03-08T13:10:37;13.83;;;10.50;;
12892;SDS011;6514;48.606;9.222;2024-03-08T13:13:04;13.83;;;10.87;;
12892;SDS011;6514;48.606;9.222;2024-03-08T13:15:31;14.23;;;10.83;;
12892;SDS011;6514;48.606;9.222;2024-03-08T13:17:58;13.40;;;10.27;;
12892;SDS011;6514;48.606;9.222;2024-03-08T13:20:26;13.83;;;10.77;;
12892;SDS011;6514;48.606;9.222;2024-03-08T13:22:54;13.70;;;10.50;;
12892;SDS011;6514;48.606;9.222;2024-03-08T13:25:22;17.23;;;11.87;;
12892;SDS011;6514;48.606;9.222;2024-03-08T13:27:49;14.83;;;11.00;;
12892;SDS011;6514;48.606;9.222;2024-03-08T13:30:15;15.73;;;11.93;;
12892;SDS011;6514;48.606;9.222;2024-03-08T13:32:43;13.83;;;11.47;;
12892;SDS011;6514;48.606;9.222;2024-03-08T13:35:11;13.93;;;11.00;;
12892;SDS011;6514;48.606;9.222;2024-03-08T13:37:39;15.37;;;11.03;;
12892;SDS011;6514;48.606;9.222;2024-03-08T13:40:08;15.63;;;11.10;;
12892;SDS011;6514;48.606;9.222;2024-03-08T13:42:38;15.27;;;11.80;;
12892;SDS011;6514;48.606;9.222;2024-03-08T13:45:06;15.47;;;11.40;;
12892;SDS011;6514;48.606;9.222;2024-03-08T13:47:35;17.20;;;12.27;;
12892;SDS011;6514;48.606;9.222;2024-03-08T13:50:04;14.30;;;11.20;;
12892;SDS011;6514;48.606;9.222;2024-03-08T13:52:36;15.37;;;11.07;;
12892;SDS011;6514;48.606;9.222;2024-03-08T13:55:04;15.70;;;11.67;;
12892;SDS011;6514;48.606;9.222;2024-03-08T13:57:32;25.33;;;15.93;;
12892;SDS011;6514;48.606;9.222;2024-03-08T13:59:59;14.77;;;11.30;;
12892;SDS011;6514;48.606;9.222;2024-03-08T14:02:26;17.63;;;11.23;;
12892;SDS011;6514;48.606;9.222;2024-03-08T14:04:55;15.40;;;10.50;;
12892;SDS011;6514;48.606;9.222;2024-03-08T14:07:22;14.50;;;9.77;;
12892;SDS011;6514;48.606;9.222;2024-03-08T14:09:49;14.63;;;10.50;;
12892;SDS011;6514;48.606;9.222;2024-03-08T14:12:17;13.03;;;10.17;;
12892;SDS011;6514;48.606;9.222;2024-03-08T14:14:46;16.70;;;10.90;;
12892;SDS011;6514;48.606;9.222;2024-03-08T14:17:13;15.73;;;11.07;;
12892;SDS011;6514;48.606;9.222;2024-03-08T14:19:42;15.40;;;11.23;;
12892;SDS011;6514;48.606;9.222;2024-03-08T14:22:09;17.37;;;11.30;;
12892;SDS011;6514;48.606;9.222;2024-03-08T14:24:39;14.37;;;10.87;;
12892;SDS011;6514;48.606;9.222;2024-03-08T14:27:07;14.53;;;11.20;;
12892;SDS011;6514;48.606;9.222;2024-03-08T14:29:34;15.17;;;10.77;;
12892;SDS011;6514;48.606;9.222;2024-03-08T14:32:03;14.77;;;10.17;;
12892;SDS011;6514;48.606;9.222;2024-03-08T14:34:31;16.87;;;11.50;;
12892;SDS011;6514;48.606;9.222;2024-03-08T14:36:59;16.10;;;11.27;;
12892;SDS011;6514;48.606;9.222;2024-03-08T14:39:29;18.17;;;11.50;;
12892;SDS011;6514;48.606;9.222;2024-03-08T14:41:58;15.80;;;11.23;;
12892;SDS011;6514;48.606;9.222;2024-03-08T14:44:25;14.60;;;10.50;;
12892;SDS011;6514;48.606;9.222;2024-03-08T14:46:54;14.73;;;10.73;;